createdAt,value
2018-04-22T00:02:02.873Z,52.00
2018-04-22T00:04:30.396Z,52.20
2018-04-22T00:06:58.679Z,52.30
2018-04-22T00:09:26.953Z,52.00
2018-04-22T00:11:55.270Z,51.90
2018-04-22T00:14:22.787Z,51.90
2018-04-22T00:16:50.281Z,51.60
2018-04-22T00:19:17.785Z,51.50
2018-04-22T00:21:45.294Z,51.40
2018-04-22T00:24:12.840Z,51.30
2018-04-22T00:26:40.352Z,51.20
2018-04-22T00:29:07.858Z,51.10
2018-04-22T00:31:35.369Z,51.40
2018-04-22T00:34:02.865Z,51.20
2018-04-22T00:36:31.133Z,51.30
2018-04-22T00:38:58.633Z,51.30
2018-04-22T00:41:26.132Z,51.60
2018-04-22T00:43:53.638Z,51.50
2018-04-22T00:46:21.138Z,51.40
2018-04-22T00:48:48.629Z,51.30
2018-04-22T00:51:16.895Z,51.70
2018-04-22T00:53:56.307Z,51.60
2018-04-22T00:56:23.805Z,51.60
2018-04-22T00:58:52.064Z,52.10
2018-04-22T01:01:19.573Z,52.00
2018-04-22T01:03:47.133Z,52.20
2018-04-22T01:06:14.639Z,52.40
2018-04-22T01:08:43.660Z,52.40
2018-04-22T01:11:11.941Z,52.40
2018-04-22T01:13:39.458Z,52.40
2018-04-22T01:16:06.975Z,52.60
2018-04-22T01:18:34.477Z,52.60
2018-04-22T01:21:01.984Z,52.50
2018-04-22T01:23:29.484Z,52.50
2018-04-22T01:25:56.985Z,52.60
2018-04-22T01:28:25.258Z,52.80
2018-04-22T01:30:53.542Z,53.10
2018-04-22T01:33:21.833Z,53.30
2018-04-22T01:35:49.337Z,53.30
2018-04-22T01:38:16.837Z,53.20
2018-04-22T01:40:45.117Z,53.50
2018-04-22T01:43:12.640Z,53.50
2018-04-22T01:45:40.146Z,53.60
2018-04-22T01:48:07.669Z,53.70
2018-04-22T01:50:35.161Z,53.80
2018-04-22T01:53:02.678Z,53.60
2018-04-22T01:55:30.202Z,53.80
2018-04-22T01:57:57.713Z,53.80
2018-04-22T02:00:25.995Z,54.10
2018-04-22T02:02:54.273Z,54.80
2018-04-22T02:05:22.550Z,54.20
2018-04-22T02:07:50.825Z,54.30
2018-04-22T02:10:19.102Z,54.60
2018-04-22T02:12:47.369Z,54.70
2018-04-22T02:15:15.638Z,54.60
2018-04-22T02:17:43.138Z,54.60
2018-04-22T02:20:10.641Z,54.70
2018-04-22T02:22:39.666Z,55.00
2018-04-22T02:25:07.937Z,55.20
2018-04-22T02:27:36.218Z,55.50
2018-04-22T02:30:04.492Z,55.70
2018-04-22T02:32:32.770Z,55.90
2018-04-22T02:35:01.050Z,56.00
2018-04-22T02:37:29.326Z,55.90
2018-04-22T02:39:57.610Z,55.90
2018-04-22T02:42:25.893Z,56.40
2018-04-22T02:44:53.397Z,56.40
2018-04-22T02:47:20.922Z,56.40
2018-04-22T02:49:48.433Z,56.20
2018-04-22T02:52:15.939Z,56.30
2018-04-22T02:54:43.450Z,56.60
2018-04-22T02:57:10.952Z,56.60
2018-04-22T02:59:38.458Z,56.90
2018-04-22T03:02:05.971Z,56.80
2018-04-22T03:04:33.485Z,57.00
2018-04-22T03:07:01.758Z,57.00
2018-04-22T03:09:30.028Z,56.80
2018-04-22T03:11:57.529Z,56.80
2018-04-22T03:14:25.046Z,57.00
2018-04-22T03:16:52.545Z,57.10
2018-04-22T03:19:20.061Z,57.10
2018-04-22T03:21:47.585Z,57.30
2018-04-22T03:24:15.090Z,57.30
2018-04-22T03:26:43.356Z,57.60
2018-04-22T03:29:10.862Z,57.60
2018-04-22T03:31:38.381Z,57.70
2018-04-22T03:34:06.646Z,57.70
2018-04-22T03:36:35.682Z,57.70
2018-04-22T03:39:03.199Z,57.70
2018-04-22T03:41:30.705Z,57.60
2018-04-22T03:43:58.214Z,57.70
2018-04-22T03:46:25.714Z,57.60
2018-04-22T03:48:53.245Z,57.70
2018-04-22T03:51:21.529Z,58.10
2018-04-22T03:53:49.818Z,58.00
2018-04-22T03:56:18.090Z,57.90
2018-04-22T03:58:46.374Z,57.70
2018-04-22T04:01:14.642Z,57.80
2018-04-22T04:03:42.927Z,57.80
2018-04-22T04:06:10.429Z,57.70
2018-04-22T04:08:37.937Z,58.10
2018-04-22T04:11:06.209Z,58.20
2018-04-22T04:13:34.485Z,58.40
2018-04-22T04:16:02.770Z,58.40
2018-04-22T04:32:01.020Z,59.00
2018-04-22T04:34:28.542Z,59.00
2018-04-22T04:36:56.045Z,59.00
2018-04-22T04:39:24.321Z,59.00
2018-04-22T04:41:52.618Z,59.10
2018-04-22T04:44:20.145Z,59.00
2018-04-22T04:46:47.647Z,59.00
2018-04-22T04:49:15.169Z,59.20
2018-04-22T04:51:42.689Z,59.40
2018-04-22T04:54:10.193Z,59.30
2018-04-22T04:56:38.461Z,60.00
2018-04-22T04:59:05.981Z,59.90
2018-04-22T05:01:33.483Z,59.90
2018-04-22T05:04:01.761Z,60.90
2018-04-22T05:06:30.029Z,60.30
2018-04-22T05:08:58.301Z,60.80
2018-04-22T05:11:25.804Z,60.00
2018-04-22T05:13:53.309Z,60.10
2018-04-22T05:16:20.837Z,60.50
2018-04-22T05:18:48.367Z,60.90
2018-04-22T05:21:15.869Z,61.00
2018-04-22T05:23:43.396Z,61.50
2018-04-22T05:26:10.898Z,62.00
2018-04-22T05:28:38.402Z,62.00
2018-04-22T05:31:05.926Z,61.70
2018-04-22T05:33:33.425Z,61.00
2018-04-22T05:36:00.968Z,60.60
2018-04-22T05:38:29.261Z,59.70
2018-04-22T05:40:56.763Z,59.70
2018-04-22T05:43:25.658Z,61.20
2018-04-22T05:45:53.190Z,61.20
2018-04-22T05:48:20.697Z,61.50
2018-04-22T05:50:48.974Z,60.20
2018-04-22T05:53:17.258Z,59.10
2018-04-22T05:55:45.537Z,58.60
2018-04-22T05:58:13.830Z,57.70
2018-04-22T06:00:41.334Z,57.70
2018-04-22T06:03:08.838Z,57.30
2018-04-22T06:05:37.101Z,58.10
2018-04-22T06:08:05.381Z,57.60
2018-04-22T06:10:33.661Z,56.90
2018-04-22T06:13:01.942Z,56.50
2018-04-22T06:15:30.201Z,56.40
2018-04-22T06:17:58.481Z,56.30
2018-04-22T06:20:26.011Z,56.30
2018-04-22T06:22:53.554Z,55.90
2018-04-22T06:25:21.044Z,55.60
2018-04-22T06:27:48.542Z,55.30
2018-04-22T06:30:16.053Z,55.70
2018-04-22T06:32:43.557Z,55.90
2018-04-22T06:35:11.065Z,56.30
2018-04-22T06:37:38.562Z,56.10
2018-04-22T06:40:06.846Z,55.90
2018-04-22T06:42:35.113Z,55.00
2018-04-22T06:45:03.389Z,54.90
2018-04-22T06:47:31.666Z,55.40
2018-04-22T06:49:59.945Z,55.00
2018-04-22T06:52:28.229Z,55.10
2018-04-22T06:54:55.759Z,55.00
2018-04-22T06:57:24.035Z,54.60
2018-04-22T06:59:53.794Z,54.70
2018-04-22T07:02:21.310Z,54.70
2018-04-22T07:04:48.817Z,54.50
2018-04-22T07:07:16.329Z,54.10
2018-04-22T07:09:43.827Z,54.00
2018-04-22T07:12:11.337Z,54.10
2018-04-22T07:14:38.830Z,53.60
2018-04-22T07:17:06.353Z,53.10
2018-04-22T07:19:33.886Z,53.70
2018-04-22T07:22:01.385Z,52.30
2018-04-22T07:24:29.673Z,53.30
2018-04-22T07:26:57.938Z,52.80
2018-04-22T07:29:26.206Z,51.90
2018-04-22T07:31:53.707Z,51.90
2018-04-22T07:34:21.209Z,52.60
2018-04-22T07:36:49.478Z,53.30
2018-04-22T07:39:16.993Z,53.30
2018-04-22T07:41:44.510Z,53.60
2018-04-22T07:44:12.005Z,53.40
2018-04-22T07:46:39.501Z,52.50
2018-04-22T07:49:07.001Z,52.00
2018-04-22T07:51:35.277Z,52.80
2018-04-22T07:54:03.537Z,52.70
2018-04-22T07:56:31.037Z,52.70
2018-04-22T07:58:58.554Z,52.00
2018-04-22T08:01:26.850Z,52.90
2018-04-22T08:03:55.158Z,52.40
2018-04-22T08:06:22.658Z,52.40
2018-04-22T08:08:50.921Z,51.60
2018-04-22T08:11:18.450Z,50.90
2018-04-22T08:13:45.988Z,50.60
2018-04-22T08:16:14.314Z,51.20
2018-04-22T08:18:41.785Z,51.10
2018-04-22T08:21:10.077Z,50.00
2018-04-22T08:23:37.584Z,50.00
2018-04-22T08:26:05.101Z,50.50
2018-04-22T08:28:33.390Z,50.00
2018-04-22T08:31:01.695Z,49.20
2018-04-22T08:46:24.783Z,49.10
2018-04-22T08:48:52.305Z,49.80
2018-04-22T08:51:19.803Z,49.50
2018-04-22T08:53:47.311Z,50.80
2018-04-22T08:56:14.821Z,50.90
2018-04-22T08:58:42.337Z,50.70
2018-04-22T09:01:09.837Z,51.80
2018-04-22T09:03:37.340Z,51.80
2018-04-22T09:06:04.833Z,51.10
2018-04-22T09:08:32.338Z,49.60
2018-04-22T09:11:00.618Z,48.20
2018-04-22T09:13:28.891Z,48.70
2018-04-22T09:15:57.165Z,54.30
2018-04-22T09:18:25.433Z,47.90
2018-04-22T09:20:53.695Z,36.00
2018-04-22T09:23:21.221Z,35.70
2018-04-22T09:25:48.725Z,32.40
2018-04-22T09:28:16.998Z,42.20
2018-04-22T09:30:45.285Z,34.50
2018-04-22T09:33:13.627Z,29.40
2018-04-22T09:35:41.079Z,29.40
2018-04-22T09:38:08.592Z,27.90
2018-04-22T09:40:36.142Z,24.00
2018-04-22T09:43:04.457Z,20.40
2018-04-22T09:45:34.055Z,18.40
2018-04-22T09:48:02.289Z,18.40
2018-04-22T09:50:30.557Z,21.90
2018-04-22T09:52:58.062Z,21.90
2018-04-22T09:55:25.565Z,24.00
2018-04-22T09:57:53.094Z,25.50
2018-04-22T10:00:26.233Z,26.40
2018-04-22T10:02:55.334Z,29.60
2018-04-22T10:05:23.617Z,30.80
2018-04-22T10:07:51.889Z,33.30
2018-04-22T10:10:20.154Z,35.00
2018-04-22T10:12:48.446Z,34.50
2018-04-22T10:15:16.725Z,35.60
2018-04-22T10:17:45.019Z,38.30
2018-04-22T10:20:12.521Z,38.30
2018-04-22T10:22:40.049Z,38.70
2018-04-22T10:25:07.551Z,40.00
2018-04-22T10:27:35.053Z,40.80
2018-04-22T10:30:02.565Z,42.50
2018-04-22T10:32:30.079Z,40.80
2018-04-22T10:34:57.594Z,41.50
2018-04-22T10:37:25.878Z,43.60
2018-04-22T10:39:54.141Z,41.90
2018-04-22T10:42:21.981Z,42.40
2018-04-22T10:44:49.483Z,42.30
2018-04-22T10:47:17.747Z,43.00
2018-04-22T10:49:45.261Z,43.00
2018-04-22T10:52:12.762Z,43.20
2018-04-22T10:54:40.269Z,43.80
2018-04-22T10:57:07.786Z,42.60
2018-04-22T10:59:36.102Z,42.10
2018-04-22T11:02:03.676Z,42.70
2018-04-22T11:04:31.142Z,43.40
2018-04-22T11:06:58.649Z,42.40
2018-04-22T11:09:26.913Z,43.10
2018-04-22T11:11:55.189Z,42.80
2018-04-22T11:14:22.807Z,42.70
2018-04-22T11:16:50.340Z,43.40
2018-04-22T11:19:17.841Z,42.70
2018-04-22T11:21:45.354Z,41.00
2018-04-22T11:24:12.870Z,39.40
2018-04-22T11:26:41.141Z,40.10
2018-04-22T11:29:08.633Z,40.10
2018-04-22T11:31:36.897Z,39.60
2018-04-22T11:34:05.177Z,38.80
2018-04-22T11:36:33.461Z,40.90
2018-04-22T11:39:01.726Z,41.30
2018-04-22T11:41:30.011Z,40.70
2018-04-22T11:43:58.301Z,38.40
2018-04-22T11:46:25.806Z,38.50
2018-04-22T11:48:53.305Z,40.00
2018-04-22T11:51:21.584Z,40.70
2018-04-22T11:53:49.872Z,39.70
2018-04-22T11:56:17.376Z,39.60
2018-04-22T11:58:44.891Z,40.00
2018-04-22T12:01:12.392Z,39.20
2018-04-22T12:03:39.916Z,38.70
2018-04-22T12:06:07.446Z,38.50
2018-04-22T12:08:35.721Z,37.00
2018-04-22T12:11:03.981Z,39.60
2018-04-22T12:13:31.498Z,39.60
2018-04-22T12:15:58.994Z,37.10
2018-04-22T12:18:26.493Z,36.20
2018-04-22T12:20:54.003Z,36.50
2018-04-22T12:23:21.526Z,38.10
2018-04-22T12:25:49.029Z,38.30
2018-04-22T12:28:16.548Z,36.80
2018-04-22T12:30:44.101Z,37.10
2018-04-22T12:33:11.605Z,36.40
2018-04-22T12:35:39.198Z,37.60
2018-04-22T12:38:07.481Z,36.50
2018-04-22T12:40:34.986Z,36.40
2018-04-22T12:43:02.494Z,35.90
2018-04-22T12:45:30.011Z,36.20
2018-04-22T12:47:57.509Z,34.70
2018-04-22T12:50:25.784Z,37.40
2018-04-22T12:52:54.085Z,35.80
2018-04-22T12:55:21.587Z,35.80
2018-04-22T12:57:49.093Z,35.60
2018-04-22T13:00:16.619Z,35.50
2018-04-22T13:02:44.125Z,34.20
2018-04-22T13:05:11.628Z,35.40
2018-04-22T13:07:39.141Z,34.90
2018-04-22T13:10:06.678Z,35.50
2018-04-22T13:12:34.185Z,36.10
2018-04-22T13:15:01.679Z,36.90
2018-04-22T13:17:29.949Z,39.20
2018-04-22T13:19:58.213Z,36.40
2018-04-22T13:22:25.721Z,36.40
2018-04-22T13:24:53.235Z,35.90
2018-04-22T13:27:20.741Z,36.40
2018-04-22T13:29:48.258Z,36.60
2018-04-22T13:32:15.765Z,35.20
2018-04-22T13:34:43.269Z,34.90
2018-04-22T13:37:11.537Z,33.70
2018-04-22T13:39:39.154Z,33.70
2018-04-22T13:42:06.654Z,32.00
2018-04-22T13:44:34.171Z,30.90
2018-04-22T13:47:01.668Z,33.40
2018-04-22T13:49:29.187Z,32.70
2018-04-22T13:51:56.681Z,31.90
2018-04-22T13:54:24.326Z,29.90
2018-04-22T13:56:51.802Z,30.10
2018-04-22T13:59:19.290Z,30.00
2018-04-22T14:01:47.541Z,29.50
2018-04-22T14:04:15.034Z,29.40
2018-04-22T14:06:43.301Z,31.30
2018-04-22T14:09:11.569Z,32.20
2018-04-22T14:11:39.833Z,32.30
2018-04-22T14:14:07.332Z,32.20
2018-04-22T14:16:34.828Z,32.60
2018-04-22T14:19:02.359Z,32.60
2018-04-22T14:21:29.857Z,33.30
2018-04-22T14:23:57.350Z,35.20
2018-04-22T14:26:25.629Z,35.80
2018-04-22T14:28:53.901Z,36.10
2018-04-22T14:31:22.169Z,34.40
2018-04-22T14:33:50.437Z,33.20
2018-04-22T14:36:17.937Z,33.20
2018-04-22T14:38:45.453Z,32.20
2018-04-22T14:41:12.941Z,32.40
2018-04-22T14:43:46.521Z,33.50
2018-04-22T14:46:14.790Z,35.70
2018-04-22T14:48:55.013Z,36.10
2018-04-22T14:51:22.511Z,36.00
2018-04-22T14:53:50.785Z,34.40
2018-04-22T14:56:19.057Z,34.80
2018-04-22T14:58:48.088Z,34.80
2018-04-22T15:01:15.593Z,34.80
2018-04-22T15:03:43.091Z,32.60
2018-04-22T15:06:10.597Z,33.30
2018-04-22T15:08:38.090Z,33.60
2018-04-22T15:11:05.623Z,32.30
2018-04-22T15:13:33.134Z,32.50
2018-04-22T15:16:00.635Z,32.90
2018-04-22T15:18:28.134Z,30.30
2018-04-22T15:20:56.410Z,29.90
2018-04-22T15:23:24.693Z,30.00
2018-04-22T15:25:52.956Z,30.20
2018-04-22T15:28:21.213Z,31.70
2018-04-22T15:30:48.712Z,31.60
2018-04-22T15:33:16.226Z,30.90
2018-04-22T15:35:43.846Z,28.80
2018-04-22T15:38:11.341Z,28.90
2018-04-22T15:40:38.837Z,28.70
2018-04-22T15:43:07.115Z,28.70
2018-04-22T15:45:35.416Z,27.80
2018-04-22T15:48:02.921Z,27.80
2018-04-22T15:50:30.645Z,28.00
2018-04-22T15:52:58.137Z,28.10
2018-04-22T15:55:25.758Z,27.90
2018-04-22T15:57:53.282Z,27.10
2018-04-22T16:00:21.553Z,29.40
2018-04-22T16:02:49.051Z,29.40
2018-04-22T16:05:16.716Z,27.80
2018-04-22T16:07:44.279Z,28.00
2018-04-22T16:10:11.849Z,27.90
2018-04-22T16:12:39.354Z,28.70
2018-04-22T16:15:07.621Z,30.50
2018-04-22T16:17:35.138Z,30.50
2018-04-22T16:20:02.673Z,29.60
2018-04-22T16:22:30.209Z,30.00
2018-04-22T16:24:58.482Z,31.70
2018-04-22T16:27:26.797Z,29.10
2018-04-22T16:29:54.297Z,29.10
2018-04-22T16:32:21.918Z,29.40
2018-04-22T16:34:49.446Z,29.90
2018-04-22T16:37:17.713Z,31.10
2018-04-22T16:39:46.001Z,31.90
2018-04-22T16:42:14.273Z,33.60
2018-04-22T16:44:42.542Z,35.30
2018-04-22T16:47:10.805Z,37.20
2018-04-22T16:49:38.309Z,37.20
2018-04-22T16:52:05.810Z,39.00
2018-04-22T16:54:33.338Z,40.70
2018-04-22T16:57:00.835Z,41.80
2018-04-22T16:59:28.344Z,42.90
2018-04-22T17:01:55.882Z,43.50
2018-04-22T17:04:24.152Z,44.60
2018-04-22T17:06:52.436Z,45.80
2018-04-22T17:09:20.721Z,45.80
2018-04-22T17:11:48.991Z,46.10
2018-04-22T17:14:17.267Z,46.30
2018-04-22T17:16:45.553Z,46.30
2018-04-22T17:19:13.082Z,46.30
2018-04-22T17:21:40.582Z,45.80
2018-04-22T17:24:08.138Z,45.30
2018-04-22T17:26:35.657Z,44.90
2018-04-22T17:29:03.154Z,45.30
2018-04-22T17:31:30.682Z,46.00
2018-04-22T17:33:59.230Z,46.70
2018-04-22T17:36:26.763Z,46.70
2018-04-22T17:38:54.293Z,47.00
2018-04-22T17:41:22.566Z,47.80
2018-04-22T17:43:50.837Z,48.40
2018-04-22T17:46:19.101Z,48.90
2018-04-22T17:48:46.603Z,48.90
2018-04-22T17:51:14.120Z,49.20
2018-04-22T17:53:41.634Z,49.60
2018-04-22T17:56:09.148Z,50.00
2018-04-22T17:58:37.437Z,50.60
2018-04-22T18:01:05.709Z,51.00
2018-04-22T18:03:33.978Z,51.10
2018-04-22T18:06:02.265Z,51.10
2018-04-22T18:08:30.541Z,51.30
2018-04-22T18:10:58.816Z,51.70
2018-04-22T18:13:27.084Z,52.00
2018-04-22T18:15:55.362Z,52.30
2018-04-22T18:18:23.637Z,52.40
2018-04-22T18:20:51.901Z,52.50
2018-04-22T18:23:19.418Z,52.40
2018-04-22T18:25:46.930Z,52.80
2018-04-22T18:28:15.207Z,53.40
2018-04-22T18:30:43.478Z,53.50
2018-04-22T18:33:11.765Z,53.80
2018-04-22T18:35:40.060Z,54.00
2018-04-22T18:38:07.579Z,53.90
2018-04-22T18:40:35.093Z,54.10
2018-04-22T18:43:02.617Z,54.20
2018-04-22T18:45:30.889Z,54.40
2018-04-22T18:47:59.176Z,54.40
2018-04-22T18:50:26.714Z,54.40
2018-04-22T18:52:54.325Z,54.50
2018-04-22T18:55:21.826Z,54.70
2018-04-22T18:57:49.355Z,54.70
2018-04-22T19:00:16.857Z,54.70
2018-04-22T19:02:45.153Z,54.50
2018-04-22T19:05:13.459Z,54.40
2018-04-22T19:07:41.013Z,54.30
2018-04-22T19:10:08.525Z,54.20
2018-04-22T19:12:36.825Z,54.30
2018-04-22T19:15:05.102Z,54.40
2018-04-22T19:17:33.381Z,54.00
2018-04-22T19:20:01.653Z,54.10
2018-04-22T19:22:29.937Z,54.20
2018-04-22T19:24:57.475Z,54.20
2018-04-22T19:27:25.741Z,54.30
2018-04-22T19:29:53.247Z,54.20
2018-04-22T19:32:20.790Z,54.30
2018-04-22T19:34:49.065Z,54.40
2018-04-22T19:37:16.586Z,54.40
2018-04-22T19:39:44.861Z,54.50
2018-04-22T19:42:12.362Z,54.50
2018-04-22T19:44:39.937Z,54.50
2018-04-22T19:47:07.452Z,54.70
2018-04-22T19:49:35.751Z,55.00
2018-04-22T19:52:04.017Z,55.20
2018-04-22T19:54:32.295Z,55.50
2018-04-22T19:57:00.573Z,55.60
2018-04-22T19:59:28.845Z,55.90
2018-04-22T20:01:57.115Z,55.90
2018-04-22T20:04:25.431Z,56.10
2018-04-22T20:06:52.944Z,56.00
2018-04-22T20:09:21.227Z,56.00
2018-04-22T20:11:49.497Z,56.00
2018-04-22T20:14:16.997Z,55.90
2018-04-22T20:16:44.505Z,56.10
2018-04-22T20:19:12.064Z,56.30
2018-04-22T20:21:39.562Z,56.50
2018-04-22T20:24:07.071Z,56.30
2018-04-22T20:26:34.574Z,56.30
2018-04-22T20:29:02.839Z,55.70
2018-04-22T20:31:31.117Z,55.20
2018-04-22T20:33:59.385Z,54.80
2018-04-22T20:36:27.665Z,54.60
2018-04-22T20:38:55.957Z,54.50
2018-04-22T20:41:24.504Z,54.20
2018-04-22T20:43:52.006Z,54.20
2018-04-22T20:46:19.525Z,54.00
2018-04-22T20:48:47.029Z,53.80
2018-04-22T20:51:14.554Z,54.10
2018-04-22T20:53:42.825Z,54.60
2018-04-22T20:56:10.320Z,54.50
2018-04-22T20:58:37.838Z,54.70
2018-04-22T21:01:05.426Z,54.30
2018-04-22T21:03:33.686Z,54.80
2018-04-22T21:06:01.975Z,55.00
2018-04-22T21:08:30.251Z,55.30
2018-04-22T21:10:58.518Z,55.90
2018-04-22T21:13:26.793Z,56.50
2018-04-22T21:15:55.082Z,56.90
2018-04-22T21:18:23.363Z,57.10
2018-04-22T21:20:51.642Z,57.20
2018-04-22T21:23:19.909Z,57.30
2018-04-22T21:25:48.178Z,57.40
2018-04-22T21:28:16.478Z,58.10
2018-04-22T21:30:44.750Z,57.50
2018-04-22T21:33:13.021Z,57.70
2018-04-22T21:35:41.301Z,57.80
2018-04-22T21:38:09.585Z,58.00
2018-04-22T21:40:37.086Z,58.00
2018-04-22T21:43:04.589Z,58.00
2018-04-22T21:45:32.853Z,58.30
2018-04-22T21:48:01.138Z,58.70
2018-04-22T21:50:29.447Z,58.40
2018-04-22T21:52:56.945Z,58.40
2018-04-22T21:55:24.448Z,58.50
2018-04-22T21:57:51.949Z,58.80
2018-04-22T22:00:19.469Z,58.90
2018-04-22T22:02:46.970Z,59.10
2018-04-22T22:05:14.466Z,59.20
2018-04-22T22:07:42.729Z,59.30
2018-04-22T22:10:10.241Z,59.30
2018-04-22T22:12:37.741Z,59.40
2018-04-22T22:15:05.258Z,59.50
2018-04-22T22:17:32.766Z,59.60
2018-04-22T22:20:00.267Z,59.90
2018-04-22T22:22:27.786Z,59.80
2018-04-22T22:24:56.051Z,59.80
2018-04-22T22:27:23.567Z,59.80
2018-04-22T22:29:51.063Z,60.60
2018-04-22T22:32:18.565Z,59.90
2018-04-22T22:34:46.078Z,59.80
2018-04-22T22:37:13.570Z,59.90
2018-04-22T22:39:41.845Z,60.30
2018-04-22T22:42:10.107Z,60.80
2018-04-22T22:44:38.374Z,60.90
2018-04-22T22:47:05.873Z,60.90
2018-04-22T22:49:33.371Z,60.80
2018-04-22T22:52:00.882Z,60.80
2018-04-22T22:54:28.385Z,60.50
2018-04-22T22:56:55.894Z,60.60
2018-04-22T22:59:23.406Z,60.40
2018-04-22T23:01:50.924Z,60.30
2018-04-22T23:04:18.425Z,60.10
2018-04-22T23:06:45.947Z,60.20
2018-04-22T23:09:13.449Z,60.30
2018-04-22T23:11:40.973Z,60.40
2018-04-22T23:14:08.489Z,60.60
2018-04-22T23:16:36.337Z,60.80
2018-04-22T23:19:03.837Z,60.70
2018-04-22T23:21:30.899Z,61.20
2018-04-22T23:23:58.424Z,61.90
2018-04-22T23:26:26.690Z,62.40
2018-04-22T23:28:54.969Z,61.90
2018-04-22T23:31:23.257Z,61.70
2018-04-22T23:33:51.541Z,61.70
2018-04-22T23:36:19.062Z,61.70
2018-04-22T23:38:46.112Z,62.00
2018-04-22T23:41:13.177Z,62.30
2018-04-22T23:43:41.452Z,63.00
2018-04-22T23:46:09.745Z,63.20
2018-04-22T23:48:38.014Z,63.40
2018-04-22T23:51:06.290Z,63.40
2018-04-22T23:53:34.562Z,63.60
2018-04-22T23:56:01.625Z,63.50
2018-04-22T23:58:29.137Z,63.80
